Lac Courte Oreilles Indian R, Wisconsin
Current Conditions -  °F | °C
As of 2:27 AM on Thursday 29 Jan 2015 (Local Time) from KASX Reporting Station
Haze Haze  
Wind Chill: 23°   Ceiling: 1500
Heat Index: 29°   Visibility: 4mi
Dew Point: 27°   Wind: 6mph
Humidity: 92%   Direction: 290°WNW
Pressure: 29.83"   Gusts: NA
Location:  46.543°N, 90.8706°W
Report Text: KASX 290827Z AUTO 29005KT 4SM BR BKN015 BKN019 OVC047 M02/M03 A2983 RMK AO2 T10171028
Loading
Personal Weather Stations






























Interactive Weather Map New forecast layout! Learn more

10-Day Weather Forecast

Advertisements
Track Severe Weather on mobile